createdAt,value
2023-02-11T00:01:39.896Z,53.016043065438296
2023-02-11T00:06:37.146Z,53.362682491954466
2023-02-11T00:11:33.392Z,54.83338245772328
2023-02-11T00:16:29.744Z,55.1443007976395
2023-02-11T00:21:26.886Z,53.430714961816605
2023-02-11T00:26:25.136Z,52.270700872363925
2023-02-11T00:31:25.561Z,52.50023499483826
2023-02-11T00:36:22.710Z,54.24803759733859
2023-02-11T00:41:18.943Z,54.60057243877732
2023-02-11T00:46:15.241Z,53.461089925649276
2023-02-11T00:51:11.427Z,53.4047422791175
2023-02-11T00:56:07.853Z,54.26245365805465
2023-02-11T01:01:05.029Z,54.89178877997509
2023-02-11T01:06:01.245Z,53.68799493684207
2023-02-11T01:10:58.493Z,54.10041927603706
2023-02-11T01:15:54.813Z,54.047427747456965
2023-02-11T01:20:51.985Z,51.9913502908931
2023-02-11T01:25:48.532Z,52.85697732419039
2023-02-11T01:30:45.606Z,54.15579924927433
2023-02-11T01:35:41.800Z,54.60901617609172
2023-02-11T01:46:00.287Z,54.68724161387179
2023-02-11T01:50:59.479Z,56.13294867418668
2023-02-11T01:55:56.787Z,54.128521994021995
2023-02-11T02:00:54.986Z,53.594230967815356
2023-02-11T02:05:57.252Z,53.58211678602456
2023-02-11T02:10:55.460Z,55.263830281695
2023-02-11T02:15:53.956Z,54.728728863295494
2023-02-11T02:21:04.946Z,54.74462477176295
2023-02-11T02:26:18.209Z,54.44320069035845
2023-02-11T02:31:28.430Z,54.91766542539064
2023-02-11T02:36:31.617Z,54.27391015610894
2023-02-11T02:41:31.897Z,55.234614000879624
2023-02-11T02:46:34.208Z,54.39221283308687
2023-02-11T02:51:41.360Z,55.76902370497658
2023-02-11T02:56:44.602Z,55.4469915085376
2023-02-11T03:01:49.826Z,56.07386813101917
2023-02-11T03:06:55.080Z,55.60740846935592
2023-02-11T03:11:52.347Z,55.808112936492314
2023-02-11T03:16:51.589Z,53.832413653778836
2023-02-11T03:21:48.867Z,53.73009084598914
2023-02-11T03:26:50.063Z,53.094913783066595
2023-02-11T03:31:53.544Z,54.2489833768421
2023-02-11T03:36:54.611Z,53.467899754777925
2023-02-11T03:41:54.883Z,54.33295102812161
2023-02-11T03:46:54.113Z,51.61669363854371
2023-02-11T03:51:53.318Z,53.31661870400209
2023-02-11T03:56:52.579Z,54.82622975549911
2023-02-11T04:01:48.885Z,54.95945948514984
2023-02-11T04:06:45.145Z,54.66053053794175
2023-02-11T04:11:41.341Z,55.60924987800161
2023-02-11T04:16:37.748Z,53.85690393850863
2023-02-11T04:21:33.865Z,55.24853335242473
2023-02-11T04:26:30.119Z,56.79055358799854
2023-02-11T04:31:26.577Z,55.01342782979561
2023-02-11T04:36:22.643Z,56.73740152962102
2023-02-11T04:41:18.940Z,56.3021689549571
2023-02-11T04:46:15.239Z,57.30609372095134
2023-02-11T04:51:11.455Z,58.04859811489651
2023-02-11T04:56:07.706Z,58.30915969440212
2023-02-11T05:01:06.007Z,59.004826828604934
2023-02-11T05:06:02.210Z,57.526127201848375
2023-02-11T05:10:58.550Z,57.22575400123341
2023-02-11T05:15:54.718Z,55.911152839999055
2023-02-11T05:20:51.021Z,55.5291329974362
2023-02-11T05:25:47.264Z,55.770555237464336
2023-02-11T05:30:43.566Z,55.55523538706185
2023-02-11T05:35:39.790Z,54.64224015350387
2023-02-11T05:40:37.042Z,54.21977265541256
2023-02-11T05:45:33.218Z,53.92124769058489
2023-02-11T05:50:29.596Z,54.628621956574285
2023-02-11T05:55:25.803Z,54.254842836554865
2023-02-11T06:00:22.033Z,54.884504622964705
2023-02-11T08:01:47.919Z,57.9765380695305
2023-02-11T08:06:46.248Z,61.915728321657014
2023-02-11T08:11:44.351Z,54.59295685390497
2023-02-11T08:16:40.639Z,56.34861224385805
2023-02-11T08:21:36.844Z,53.97329991122552
2023-02-11T08:26:33.102Z,51.186197699996484
2023-02-11T08:31:32.496Z,51.135525054017194
2023-02-11T08:36:28.619Z,50.70034226817365
2023-02-11T08:41:24.854Z,51.58735900492079
2023-02-11T08:46:21.161Z,50.50981987712761
2023-02-11T08:51:18.414Z,50.85722198659122
2023-02-11T08:56:19.643Z,48.35114624799689
2023-02-11T09:01:16.958Z,48.92148905349275
2023-02-11T09:06:13.168Z,46.67330694402313
2023-02-11T09:11:09.408Z,47.32668346842733
2023-02-11T09:16:05.675Z,47.03002374924545
2023-02-11T09:21:02.008Z,45.67547695064398
2023-02-11T09:25:58.224Z,45.99318517329253
2023-02-11T09:30:54.998Z,44.64310365501524
2023-02-11T09:35:51.744Z,44.88058163190183
2023-02-11T09:40:48.086Z,44.95674485274657
2023-02-11T09:45:47.249Z,44.392167024874254
2023-02-11T09:50:46.513Z,44.5194575926945
2023-02-11T09:55:51.709Z,45.110676526145085
2023-02-11T10:00:53.965Z,43.49458459874633
2023-02-11T10:06:05.205Z,42.95579190225238
2023-02-11T10:11:26.056Z,41.98038296675822
2023-02-11T10:16:24.614Z,41.57843269397628
2023-02-11T10:26:33.111Z,41.55053259119874
2023-02-11T10:31:35.670Z,39.5087717209265
2023-02-11T10:36:33.632Z,39.66521253070376
2023-02-11T10:41:32.906Z,38.85143414348486
2023-02-11T10:46:32.253Z,48.050337416395294
2023-02-11T10:51:33.368Z,35.07843809008376
2023-02-11T10:56:30.632Z,36.616689639754206
2023-02-11T11:01:37.900Z,36.264647885962226
2023-02-11T11:06:35.162Z,35.91257601922077
2023-02-11T11:11:39.356Z,35.012807160145755
2023-02-11T11:16:45.560Z,35.537583966172996
2023-02-11T11:21:45.869Z,34.35068258968137
2023-02-11T11:26:46.097Z,35.73071835919176
2023-02-11T11:31:47.396Z,35.19218145080089
2023-02-11T11:36:45.566Z,35.636792610516366
2023-02-11T11:41:50.848Z,34.010073097531226
2023-02-11T11:46:56.133Z,35.27026172009652
2023-02-11T11:51:56.334Z,36.156412756198826
2023-02-11T11:56:57.548Z,36.36533422463067
2023-02-11T12:02:08.846Z,36.00155295710186
2023-02-11T12:07:16.017Z,34.75839309954249
2023-02-11T12:12:25.281Z,35.787290279736574
2023-02-11T12:17:32.501Z,35.17958766112271
2023-02-11T12:22:40.754Z,33.22741428504627
2023-02-11T12:27:42.933Z,31.88810899674992
2023-02-11T12:32:51.229Z,31.343654713500783
2023-02-11T12:38:03.371Z,31.486746110489307
2023-02-11T12:43:08.661Z,32.688527177239024
2023-02-11T12:48:16.869Z,34.36933083305408
2023-02-11T12:53:36.042Z,34.36717264076485
2023-02-11T12:58:44.532Z,36.089945292664666
2023-02-11T13:03:44.532Z,36.744243871662704
2023-02-11T13:08:45.796Z,36.32004558101032
2023-02-11T13:13:52.097Z,33.75862103382177
2023-02-11T13:18:59.278Z,31.127253009014186
2023-02-11T13:24:01.517Z,30.161136694585707
2023-02-11T13:29:06.770Z,29.421389275124472
2023-02-11T13:34:08.977Z,28.556385474050266
2023-02-11T13:39:06.250Z,27.47032137907695
2023-02-11T13:44:05.502Z,27.45847527824494
2023-02-11T13:49:02.769Z,29.97211963842617
2023-02-11T13:53:58.005Z,30.63221522742899
2023-02-11T13:59:04.276Z,31.11677183401491
2023-02-11T14:04:10.496Z,32.08015454643557
2023-02-11T14:09:14.736Z,33.68976870015238
2023-02-11T14:14:18.982Z,33.114022368242395
2023-02-11T14:19:29.222Z,30.72343386293475
2023-02-11T14:24:35.468Z,29.999768730510503
2023-02-11T14:29:37.719Z,31.635966144995898
2023-02-11T14:34:43.934Z,33.090068508183144
2023-02-11T14:39:53.128Z,33.715052299130555
2023-02-11T14:44:52.426Z,31.63586860663963
2023-02-11T14:49:52.605Z,30.44843744888526
2023-02-11T14:54:50.873Z,27.416201639050925
2023-02-11T14:59:53.182Z,29.10296585356537
2023-02-11T15:05:01.376Z,28.705885489668074
2023-02-11T15:10:02.634Z,30.25859391050895
2023-02-11T15:14:59.899Z,31.61127481595382
2023-02-11T15:20:00.152Z,33.17623963358478
2023-02-11T15:24:59.352Z,32.75433902230761
2023-02-11T15:29:56.670Z,36.20565431034078
2023-02-11T15:34:53.892Z,35.941615507004876
2023-02-11T15:39:52.147Z,35.93069750341381
2023-02-11T15:45:07.521Z,36.13397635009979
2023-02-11T15:50:03.642Z,37.53517647797716
2023-02-11T15:55:01.885Z,39.266071720126405
2023-02-11T15:59:59.144Z,38.97542477213171
2023-02-11T16:04:57.461Z,40.17502207370637
2023-02-11T16:09:57.614Z,41.28281523486121
2023-02-11T16:14:54.890Z,40.84190315590297
2023-02-11T16:19:53.140Z,42.65204936142931
2023-02-11T16:24:58.389Z,41.56229912394437
2023-02-11T16:29:56.701Z,44.71053439193889
2023-02-11T16:35:04.868Z,43.67009901109925
2023-02-11T16:40:01.105Z,43.38566031888105
2023-02-11T16:44:57.419Z,43.02862711395294
2023-02-11T16:49:55.639Z,44.1591173847805
2023-02-11T16:54:55.881Z,45.58406887208165
2023-02-11T16:59:52.201Z,44.59131948716125
2023-02-11T17:04:54.483Z,42.281188334243694
2023-02-11T17:09:51.659Z,46.62829217058492
2023-02-11T17:14:47.914Z,48.14889857661659
2023-02-11T17:19:45.141Z,46.79917058317842
2023-02-11T17:24:41.422Z,46.97946360299891
2023-02-11T17:29:38.698Z,46.57036378193141
2023-02-11T17:34:33.913Z,47.69050768645471
2023-02-11T17:39:30.211Z,45.76830693116279
2023-02-11T17:44:29.479Z,46.705975952309345
2023-02-11T17:49:25.763Z,48.77626957398277
2023-02-11T17:54:21.956Z,49.199989377874594
2023-02-11T17:59:18.233Z,50.213100662465145
2023-02-11T18:04:15.738Z,46.85595038000553
2023-02-11T18:09:11.754Z,45.52299313027506
2023-02-11T18:14:07.600Z,49.04614409221312
2023-02-11T18:19:05.267Z,50.28820245384897
2023-02-11T18:24:06.437Z,51.119662364138435
2023-02-11T18:29:01.763Z,52.87500132444168
2023-02-11T18:33:58.050Z,47.47231431196652
2023-02-11T18:38:53.292Z,50.17023488331962
2023-02-11T18:43:49.570Z,48.387779128214554
2023-02-11T18:48:45.810Z,49.446454069469574
2023-02-11T18:53:42.108Z,46.9557856615362
2023-02-11T18:58:42.375Z,49.88860604939251
2023-02-11T19:03:38.574Z,49.660338158289015
2023-02-11T19:08:34.839Z,49.972840643738316
2023-02-11T19:13:31.155Z,50.203765822809615
2023-02-11T19:18:31.336Z,47.751817432581596
2023-02-11T19:23:27.656Z,47.666620287573096
2023-02-11T19:28:23.942Z,47.73155105642125
2023-02-11T19:33:20.158Z,48.16685002265265
2023-02-11T19:38:16.410Z,49.113114596040084
2023-02-11T19:43:12.641Z,48.100865327386146
2023-02-11T19:48:12.881Z,52.02997651151396
2023-02-11T19:53:09.160Z,50.70811061112671
2023-02-11T19:58:05.411Z,49.495791128915606
2023-02-11T20:03:01.783Z,51.39585600313318
2023-02-11T20:07:57.003Z,50.23251542581374
2023-02-11T20:12:53.215Z,49.32098334777156
2023-02-11T20:17:49.483Z,50.67905861126432
2023-02-11T20:22:45.692Z,50.950900274832286
2023-02-11T20:27:42.018Z,52.062498885208214
2023-02-11T20:32:38.237Z,51.946916742694974
2023-02-11T20:37:34.495Z,52.41230039015093
2023-02-11T20:42:30.780Z,51.890819094995514
2023-02-11T20:47:27.012Z,51.62152010740627
2023-02-11T20:52:23.287Z,52.57897277934575
2023-02-11T20:57:18.549Z,52.68001279281203
2023-02-11T21:02:19.189Z,51.91776019083808
2023-02-11T21:07:15.023Z,52.7220901814427
2023-02-11T21:12:10.347Z,52.17389335653098
2023-02-11T21:17:06.543Z,51.14350543267383
2023-02-11T21:22:02.810Z,51.42546173067329
2023-02-11T21:26:59.098Z,49.7367962786789
2023-02-11T21:31:56.538Z,49.863066424827686
2023-02-11T21:36:52.621Z,50.26351455117877
2023-02-11T21:41:48.912Z,50.56576648878587
2023-02-11T21:46:46.201Z,50.16948193395143
2023-02-11T21:51:44.364Z,50.024295521696295
2023-02-11T21:56:41.623Z,51.14244358583072
2023-02-11T22:01:44.901Z,50.733022146924135
2023-02-11T22:06:42.141Z,52.00559300739307
2023-02-11T22:11:39.419Z,53.9688562669083
2023-02-11T22:16:36.783Z,52.664963400968674
2023-02-11T22:21:32.974Z,55.241163173057735
2023-02-11T22:26:29.200Z,54.76818765548539
2023-02-11T22:31:27.542Z,54.80964480372058
2023-02-11T22:36:32.672Z,54.9767930370008
2023-02-11T22:41:28.880Z,54.539209836010365
2023-02-11T22:46:25.142Z,53.23784520167588
2023-02-11T22:51:22.449Z,53.75355392869933
2023-02-11T22:56:18.677Z,54.141600472614314
2023-02-11T23:01:14.977Z,53.92242672111746
2023-02-11T23:06:12.235Z,55.38446094132942
2023-02-11T23:11:10.465Z,54.64726034520852
2023-02-11T23:16:11.781Z,53.885701987798676
2023-02-11T23:21:11.365Z,54.08475950469829
2023-02-11T23:26:13.231Z,53.810673287103526
2023-02-11T23:31:13.568Z,53.29447804073764
2023-02-11T23:36:09.719Z,52.7153122601933
2023-02-11T23:41:05.970Z,52.93254464602437
2023-02-11T23:46:02.270Z,53.65172466506624
2023-02-11T23:50:58.513Z,53.328224505651974
2023-02-11T23:55:56.105Z,53.51905220770355
